TimeCST,TemperatureF,Dew PointF,Humidity,Sea Level PressureIn,VisibilityMPH,Wind Direction,Wind SpeedMPH,Gust SpeedMPH,PrecipitationIn,Events,Conditions,WindDirDegrees,DateUTC
12:15 AM,-13.0,-16.6,84,30.22,10.0,Calm,Calm,-,N/A,,Clear,0,2013-01-01 06:15:00
12:35 AM,-13.0,-16.6,84,30.22,10.0,Calm,Calm,-,N/A,,Clear,0,2013-01-01 06:35:00
12:55 AM,-13.0,-16.6,84,30.22,10.0,Calm,Calm,-,N/A,,Clear,0,2013-01-01 06:55:00
1:15 AM,-14.8,-18.4,84,30.21,10.0,Calm,Calm,-,N/A,,Clear,0,2013-01-01 07:15:00
1:35 AM,-14.8,-18.4,84,30.21,10.0,Calm,Calm,-,N/A,,Clear,0,2013-01-01 07:35:00
1:55 AM,-14.8,-20.2,77,30.21,10.0,Calm,Calm,-,N/A,,Clear,0,2013-01-01 07:55:00
2:15 AM,-14.8,-20.2,77,30.22,10.0,Calm,Calm,-,N/A,,Clear,0,2013-01-01 08:15:00
2:35 AM,-16.6,-22.0,76,30.22,10.0,Calm,Calm,-,N/A,,Clear,0,2013-01-01 08:35:00
2:55 AM,-16.6,-22.0,76,30.22,10.0,Calm,Calm,-,N/A,,Clear,0,2013-01-01 08:55:00
3:15 AM,-16.6,-22.0,76,30.21,10.0,Calm,Calm,-,N/A,,Clear,0,2013-01-01 09:15:00
3:35 AM,-16.6,-23.8,70,30.22,10.0,Calm,Calm,-,N/A,,Clear,0,2013-01-01 09:35:00
3:55 AM,-16.6,-22.0,76,30.22,10.0,Calm,Calm,-,N/A,,Clear,0,2013-01-01 09:55:00
4:15 AM,-16.6,-23.8,70,30.22,10.0,Calm,Calm,-,N/A,,Clear,0,2013-01-01 10:15:00
4:35 AM,-18.4,-23.8,76,30.23,10.0,Calm,Calm,-,N/A,,Clear,0,2013-01-01 10:35:00
4:55 AM,-16.6,-23.8,70,30.23,10.0,Calm,Calm,-,N/A,,Clear,0,2013-01-01 10:55:00
5:15 AM,-18.4,-25.6,70,30.23,10.0,Calm,Calm,-,N/A,,Clear,0,2013-01-01 11:15:00
5:35 AM,-18.4,-25.6,70,30.24,10.0,Calm,Calm,-,N/A,,Clear,0,2013-01-01 11:35:00
5:55 AM,-18.4,-23.8,76,30.24,10.0,Calm,Calm,-,N/A,,Clear,0,2013-01-01 11:55:00
6:15 AM,-18.4,-25.6,70,30.25,10.0,Calm,Calm,-,N/A,,Clear,0,2013-01-01 12:15:00
6:35 AM,-18.4,-23.8,76,30.25,10.0,Calm,Calm,-,N/A,,Clear,0,2013-01-01 12:35:00
6:55 AM,-18.4,-25.6,70,30.25,10.0,Calm,Calm,-,N/A,,Clear,0,2013-01-01 12:55:00
7:15 AM,-18.4,-25.6,70,30.25,10.0,Calm,Calm,-,N/A,,Clear,0,2013-01-01 13:15:00
7:35 AM,-20.2,-25.6,76,30.25,10.0,Calm,Calm,-,N/A,,Clear,0,2013-01-01 13:35:00
7:55 AM,-20.2,-25.6,76,30.26,10.0,Calm,Calm,-,N/A,,Clear,0,2013-01-01 13:55:00
8:15 AM,-18.4,-25.6,70,30.25,10.0,Calm,Calm,-,N/A,,Clear,0,2013-01-01 14:15:00
8:35 AM,-14.8,-20.2,77,30.25,10.0,Calm,Calm,-,N/A,,Clear,0,2013-01-01 14:35:00
8:55 AM,-14.8,-18.4,84,30.26,10.0,Calm,Calm,-,N/A,,Clear,0,2013-01-01 14:55:00
9:15 AM,-11.2,-16.6,77,30.26,10.0,Calm,Calm,-,N/A,,Clear,0,2013-01-01 15:15:00
9:35 AM,-9.4,-14.8,77,30.26,10.0,Calm,Calm,-,N/A,,Clear,0,2013-01-01 15:35:00
9:55 AM,-5.8,-9.4,84,30.25,10.0,Calm,Calm,-,N/A,,Clear,0,2013-01-01 15:55:00
10:15 AM,1.4,-4.0,78,30.24,10.0,Calm,Calm,-,N/A,,Clear,0,2013-01-01 16:15:00
10:35 AM,3.2,-2.2,78,30.24,10.0,Calm,Calm,-,N/A,,Clear,0,2013-01-01 16:35:00
10:55 AM,3.2,-0.4,85,30.23,10.0,Calm,Calm,-,N/A,,Clear,0,2013-01-01 16:55:00
11:15 AM,5.0,-2.2,72,30.22,10.0,Calm,Calm,-,N/A,,Clear,0,2013-01-01 17:15:00
11:35 AM,8.6,-0.4,67,30.22,10.0,WSW,3.5,-,N/A,,Clear,240,2013-01-01 17:35:00
11:55 AM,10.4,-0.4,62,30.21,10.0,SW,4.6,-,N/A,,Clear,230,2013-01-01 17:55:00
12:15 PM,10.4,-0.4,62,30.20,10.0,West,5.8,-,N/A,,Clear,280,2013-01-01 18:15:00
12:35 PM,12.2,-0.4,57,30.19,10.0,West,5.8,-,N/A,,Clear,270,2013-01-01 18:35:00
12:55 PM,12.2,-0.4,57,30.18,10.0,WSW,5.8,-,N/A,,Clear,240,2013-01-01 18:55:00
1:15 PM,12.2,-0.4,57,30.17,10.0,West,6.9,-,N/A,,Clear,260,2013-01-01 19:15:00
1:35 PM,14.0,-0.4,53,30.17,10.0,West,4.6,-,N/A,,Clear,260,2013-01-01 19:35:00
1:55 PM,14.0,-0.4,53,30.17,10.0,West,6.9,-,N/A,,Clear,260,2013-01-01 19:55:00
2:15 PM,14.0,-2.2,49,30.17,10.0,West,6.9,-,N/A,,Clear,260,2013-01-01 20:15:00
2:35 PM,14.0,-2.2,49,30.16,10.0,WSW,8.1,-,N/A,,Clear,240,2013-01-01 20:35:00
2:55 PM,14.0,-0.4,53,30.16,10.0,WSW,5.8,16.1,N/A,,Clear,240,2013-01-01 20:55:00
3:15 PM,14.0,-0.4,53,30.16,10.0,West,8.1,-,N/A,,Clear,260,2013-01-01 21:15:00
3:35 PM,14.0,-0.4,53,30.17,10.0,West,10.4,-,N/A,,Clear,260,2013-01-01 21:35:00
4:15 PM,14.0,-0.4,53,30.16,10.0,West,5.8,-,N/A,,Overcast,260,2013-01-01 22:15:00
4:35 PM,14.0,-0.4,53,30.15,10.0,SW,4.6,-,N/A,,Overcast,220,2013-01-01 22:35:00
4:55 PM,12.2,1.4,62,30.15,10.0,Calm,Calm,-,N/A,,Overcast,0,2013-01-01 22:55:00
5:15 PM,12.2,1.4,62,30.15,10.0,SSW,4.6,-,N/A,,Overcast,210,2013-01-01 23:15:00
5:35 PM,12.2,1.4,62,30.15,10.0,SSW,4.6,-,N/A,,Overcast,210,2013-01-01 23:35:00
5:55 PM,12.2,1.4,62,30.15,10.0,SW,4.6,-,N/A,,Overcast,220,2013-01-01 23:55:00
6:15 PM,12.2,1.4,62,30.14,10.0,SW,4.6,-,N/A,,Overcast,220,2013-01-02 00:15:00
6:35 PM,12.2,1.4,62,30.14,10.0,SW,3.5,-,N/A,,Overcast,230,2013-01-02 00:35:00
6:55 PM,12.2,1.4,62,30.13,10.0,SW,3.5,-,N/A,,Overcast,220,2013-01-02 00:55:00
7:15 PM,14.0,1.4,57,30.13,10.0,SSW,3.5,-,N/A,,Overcast,210,2013-01-02 01:15:00
7:35 PM,14.0,3.2,62,30.13,10.0,SSW,3.5,-,N/A,,Overcast,210,2013-01-02 01:35:00
7:55 PM,14.0,3.2,62,30.12,10.0,SW,4.6,-,N/A,,Overcast,220,2013-01-02 01:55:00
8:15 PM,14.0,3.2,62,30.12,10.0,SW,3.5,-,N/A,,Overcast,220,2013-01-02 02:15:00
8:35 PM,14.0,3.2,62,30.11,10.0,SW,3.5,-,N/A,,Overcast,220,2013-01-02 02:35:00
9:15 PM,14.0,5.0,67,30.11,10.0,Calm,Calm,-,N/A,,Overcast,0,2013-01-02 03:15:00
9:35 PM,14.0,5.0,67,30.10,10.0,Calm,Calm,-,N/A,,Overcast,0,2013-01-02 03:35:00
9:55 PM,14.0,5.0,67,30.10,10.0,SSW,3.5,-,N/A,,Overcast,200,2013-01-02 03:55:00
10:15 PM,14.0,5.0,67,30.10,10.0,SSW,3.5,-,N/A,,Overcast,200,2013-01-02 04:15:00
10:35 PM,14.0,6.8,73,30.10,10.0,SSW,3.5,-,N/A,,Overcast,210,2013-01-02 04:35:00
10:55 PM,15.8,8.6,73,30.09,10.0,SSW,3.5,-,N/A,,Overcast,210,2013-01-02 04:55:00
11:15 PM,15.8,10.4,79,30.09,10.0,SW,3.5,-,N/A,,Overcast,220,2013-01-02 05:15:00
11:35 PM,17.6,10.4,73,30.09,10.0,SSW,3.5,-,N/A,,Overcast,200,2013-01-02 05:35:00
11:55 PM,17.6,10.4,73,30.09,10.0,SSW,3.5,-,N/A,,Overcast,210,2013-01-02 05:55:00